createdAt,value
2023-01-28T00:01:28.648Z,-1.49
2023-01-28T00:03:55.191Z,-1.48
2023-01-28T00:06:21.746Z,-1.48
2023-01-28T00:08:48.762Z,-1.51
2023-01-28T00:11:15.287Z,-1.51
2023-01-28T00:13:42.231Z,-1.55
2023-01-28T00:16:09.761Z,-1.55
2023-01-28T00:18:37.090Z,-1.56
2023-01-28T00:21:12.486Z,-1.58
2023-01-28T00:23:40.684Z,-1.56
2023-01-28T00:26:13.465Z,-1.56
2023-01-28T00:28:40.938Z,-1.54
2023-01-28T00:31:12.815Z,-1.52
2023-01-28T00:33:39.317Z,-1.48
2023-01-28T00:36:06.665Z,-1.44
2023-01-28T00:38:34.791Z,-1.42
2023-01-28T00:41:15.550Z,-1.41
2023-01-28T00:43:43.640Z,-1.40
2023-01-28T00:46:12.398Z,-1.39
2023-01-28T00:48:40.717Z,-1.38
2023-01-28T00:51:09.191Z,-1.38
2023-01-28T00:53:36.946Z,-1.40
2023-01-28T00:56:04.923Z,-1.39
2023-01-28T00:58:32.175Z,-1.37
2023-01-28T01:01:17.580Z,-1.40
2023-01-28T01:03:44.666Z,-1.41
2023-01-28T01:06:13.234Z,-1.40
2023-01-28T01:08:42.784Z,-1.41
2023-01-28T01:11:11.478Z,-1.45
2023-01-28T01:13:38.416Z,-1.45
2023-01-28T01:16:11.705Z,-1.47
2023-01-28T01:18:42.056Z,-1.49
2023-01-28T01:21:10.756Z,-1.53
2023-01-28T01:23:37.588Z,-1.53
2023-01-28T01:26:05.111Z,-1.56
2023-01-28T01:28:31.927Z,-1.59
2023-01-28T01:31:04.019Z,-1.64
2023-01-28T01:33:31.162Z,-1.65
2023-01-28T01:35:58.794Z,-1.65
2023-01-28T01:38:26.128Z,-1.63
2023-01-28T01:40:52.707Z,-1.64
2023-01-28T01:43:21.862Z,-1.64
2023-01-28T01:46:01.209Z,-1.63
2023-01-28T01:48:32.817Z,-1.64
2023-01-28T01:51:04.373Z,-1.65
2023-01-28T01:53:31.593Z,-1.63
2023-01-28T01:56:02.378Z,-1.63
2023-01-28T01:58:33.501Z,-1.62
2023-01-28T02:01:00.113Z,-1.61
2023-01-28T02:03:36.956Z,-1.60
2023-01-28T02:06:03.915Z,-1.57
2023-01-28T02:08:30.587Z,-1.57
2023-01-28T02:11:05.175Z,-1.56
2023-01-28T02:13:41.295Z,-1.56
2023-01-28T02:16:09.240Z,-1.54
2023-01-28T02:18:37.124Z,-1.55
2023-01-28T02:21:35.697Z,-1.53
2023-01-28T02:24:30.281Z,-1.51
2023-01-28T02:27:19.808Z,-1.48
2023-01-28T02:30:04.582Z,-1.49
2023-01-28T02:32:46.236Z,-1.51
2023-01-28T02:35:22.387Z,-1.50
2023-01-28T02:38:04.210Z,-1.51
2023-01-28T02:40:54.777Z,-1.52
2023-01-28T02:43:31.605Z,-1.51
2023-01-28T02:46:17.768Z,-1.52
2023-01-28T02:48:44.658Z,-1.50
2023-01-28T02:51:34.494Z,-1.49
2023-01-28T02:54:21.723Z,-1.50
2023-01-28T02:57:07.399Z,-1.49
2023-01-28T02:59:46.019Z,-1.51
2023-01-28T03:02:20.802Z,-1.49
2023-01-28T03:04:55.862Z,-1.52
2023-01-28T03:07:23.929Z,-1.51
2023-01-28T03:09:52.370Z,-1.53
2023-01-28T03:12:43.651Z,-1.53
2023-01-28T03:15:34.384Z,-1.54
2023-01-28T03:18:23.202Z,-1.54
2023-01-28T03:21:28.991Z,-1.55
2023-01-28T03:24:38.701Z,-1.55
2023-01-28T03:27:32.865Z,-1.56
2023-01-28T03:30:22.235Z,-1.56
2023-01-28T03:33:08.876Z,-1.58
2023-01-28T03:35:54.712Z,-1.57
2023-01-28T03:38:23.039Z,-1.57
2023-01-28T03:40:57.534Z,-1.57
2023-01-28T03:43:24.434Z,-1.58
2023-01-28T03:45:51.479Z,-1.60
2023-01-28T03:48:19.412Z,-1.59
2023-01-28T03:50:46.662Z,-1.60
2023-01-28T03:53:16.446Z,-1.60
2023-01-28T03:55:43.442Z,-1.62
2023-01-28T03:58:11.589Z,-1.62
2023-01-28T04:00:42.152Z,-1.64
2023-01-28T04:03:16.666Z,-1.65
2023-01-28T04:06:01.032Z,-1.62
2023-01-28T04:08:28.202Z,-1.63
2023-01-28T04:10:54.909Z,-1.64
2023-01-28T04:13:21.510Z,-1.65
2023-01-28T04:15:48.399Z,-1.65
2023-01-28T04:18:15.203Z,-1.66
2023-01-28T04:20:41.732Z,-1.67
2023-01-28T04:23:08.714Z,-1.67
2023-01-28T04:25:35.238Z,-1.67
2023-01-28T04:28:01.930Z,-1.66
2023-01-28T04:30:28.554Z,-1.67
2023-01-28T04:32:55.710Z,-1.65
2023-01-28T04:35:22.196Z,-1.65
2023-01-28T04:37:48.735Z,-1.67
2023-01-28T04:40:15.330Z,-1.67
2023-01-28T04:42:41.897Z,-1.69
2023-01-28T04:45:08.789Z,-1.67
2023-01-28T04:47:35.324Z,-1.69
2023-01-28T04:50:01.823Z,-1.68
2023-01-28T04:52:28.335Z,-1.68
2023-01-28T04:54:54.876Z,-1.67
2023-01-28T04:57:21.374Z,-1.67
2023-01-28T04:59:47.887Z,-1.69
2023-01-28T05:02:14.413Z,-1.70
2023-01-28T05:04:40.958Z,-1.69
2023-01-28T05:07:07.407Z,-1.69
2023-01-28T05:09:33.900Z,-1.70
2023-01-28T05:12:00.417Z,-1.70
2023-01-28T05:14:26.965Z,-1.70
2023-01-28T05:16:53.762Z,-1.69
2023-01-28T05:19:20.269Z,-1.70
2023-01-28T05:21:46.901Z,-1.72
2023-01-28T05:24:13.505Z,-1.74
2023-01-28T05:26:40.039Z,-1.74
2023-01-28T05:29:06.680Z,-1.75
2023-01-28T05:31:33.452Z,-1.75
2023-01-28T05:34:00.045Z,-1.75
2023-01-28T05:36:26.528Z,-1.77
2023-01-28T05:38:53.057Z,-1.78
2023-01-28T05:41:19.558Z,-1.77
2023-01-28T05:43:46.078Z,-1.78
2023-01-28T05:46:12.569Z,-1.77
2023-01-28T05:48:39.088Z,-1.80
2023-01-28T05:51:05.887Z,-1.80
2023-01-28T05:53:32.574Z,-1.80
2023-01-28T05:55:59.076Z,-1.81
2023-01-28T05:58:27.403Z,-1.81
2023-01-28T06:00:55.827Z,-1.81
2023-01-28T06:03:22.518Z,-1.82
2023-01-28T06:05:49.050Z,-1.82
2023-01-28T06:08:15.883Z,-1.81
2023-01-28T06:10:42.427Z,-1.80
2023-01-28T06:13:08.899Z,-1.82
2023-01-28T06:15:35.486Z,-1.81
2023-01-28T06:18:02.202Z,-1.90
2023-01-28T06:20:28.714Z,-1.95
2023-01-28T06:22:55.258Z,-1.98
2023-01-28T06:25:21.775Z,-2.03
2023-01-28T06:27:48.305Z,-2.04
2023-01-28T06:30:15.387Z,-2.06
2023-01-28T06:32:42.089Z,-2.05
2023-01-28T06:35:08.871Z,-2.01
2023-01-28T06:37:35.452Z,-1.99
2023-01-28T06:40:02.982Z,-1.95
2023-01-28T06:42:29.487Z,-1.93
2023-01-28T06:44:56.059Z,-1.82
2023-01-28T06:47:22.583Z,-1.70
2023-01-28T06:49:49.149Z,-1.70
2023-01-28T06:52:15.778Z,-1.71
2023-01-28T06:54:42.273Z,-1.71
2023-01-28T06:57:08.755Z,-1.71
2023-01-28T06:59:35.466Z,-1.71
2023-01-28T07:02:02.044Z,-1.71
2023-01-28T07:04:28.606Z,-1.71
2023-01-28T07:06:55.311Z,-1.68
2023-01-28T07:09:21.826Z,-1.67
2023-01-28T07:11:48.482Z,-1.67
2023-01-28T07:14:15.096Z,-1.69
2023-01-28T07:16:41.610Z,-1.71
2023-01-28T07:19:08.085Z,-1.69
2023-01-28T07:21:34.582Z,-1.64
2023-01-28T07:24:01.177Z,-1.59
2023-01-28T07:26:27.675Z,-1.57
2023-01-28T07:28:54.197Z,-1.54
2023-01-28T07:31:20.779Z,-1.51
2023-01-28T07:33:47.364Z,-1.43
2023-01-28T07:36:13.888Z,-1.37
2023-01-28T07:38:40.390Z,-1.31
2023-01-28T07:41:07.000Z,-1.23
2023-01-28T07:43:33.537Z,-1.16
2023-01-28T07:46:01.868Z,-1.11
2023-01-28T07:48:28.530Z,-1.07
2023-01-28T07:50:59.183Z,-1.02
2023-01-28T07:53:25.841Z,-1.01
2023-01-28T07:55:52.353Z,-1.01
2023-01-28T07:58:18.909Z,-0.97
2023-01-28T08:00:45.546Z,-0.96
2023-01-28T08:03:15.767Z,-0.92
2023-01-28T08:05:51.681Z,-0.90
2023-01-28T08:08:18.506Z,-0.85
2023-01-28T08:10:45.677Z,-0.87
2023-01-28T08:13:13.812Z,-0.82
2023-01-28T08:15:41.035Z,-0.78
2023-01-28T08:18:09.253Z,-0.76
2023-01-28T08:20:36.579Z,-0.69
2023-01-28T08:23:06.021Z,-0.68
2023-01-28T08:25:33.601Z,-0.59
2023-01-28T08:28:00.253Z,-0.50
2023-01-28T08:30:26.824Z,-0.47
2023-01-28T08:32:57.181Z,-0.51
2023-01-28T08:35:24.713Z,-0.49
2023-01-28T08:37:51.324Z,-0.41
2023-01-28T08:40:18.141Z,-0.36
2023-01-28T08:42:49.283Z,-0.34
2023-01-28T08:45:17.050Z,-0.30
2023-01-28T08:48:01.221Z,-0.25
2023-01-28T08:50:32.865Z,-0.28
2023-01-28T08:53:02.301Z,-0.26
2023-01-28T08:55:29.277Z,-0.23
2023-01-28T08:57:58.200Z,-0.25
2023-01-28T09:00:25.591Z,-0.22
2023-01-28T09:02:53.341Z,-0.22
2023-01-28T09:05:21.477Z,-0.19
2023-01-28T09:07:48.549Z,-0.21
2023-01-28T09:10:16.600Z,-0.19
2023-01-28T09:12:44.500Z,-0.14
2023-01-28T09:15:11.790Z,-0.08
2023-01-28T09:17:38.556Z,-0.09
2023-01-28T09:20:06.528Z,-0.06
2023-01-28T09:22:33.277Z,0.05
2023-01-28T09:24:59.805Z,0.13
2023-01-28T09:27:26.317Z,0.20
2023-01-28T09:29:52.848Z,0.23
2023-01-28T09:32:19.799Z,0.23
2023-01-28T09:34:46.349Z,0.24
2023-01-28T09:37:12.933Z,0.41
2023-01-28T09:39:39.466Z,0.15
2023-01-28T09:42:17.894Z,0.36
2023-01-28T09:45:10.228Z,0.40
2023-01-28T09:47:53.300Z,0.21
2023-01-28T09:50:32.132Z,0.41
2023-01-28T09:53:16.667Z,0.52
2023-01-28T09:55:48.046Z,0.70
2023-01-28T09:58:17.866Z,0.80
2023-01-28T10:00:50.459Z,0.49
2023-01-28T10:03:25.996Z,0.16
2023-01-28T10:06:03.689Z,0.26
2023-01-28T10:08:45.877Z,0.38
2023-01-28T10:11:21.476Z,0.59
2023-01-28T10:14:05.716Z,0.70
2023-01-28T10:16:43.238Z,0.73
2023-01-28T10:19:32.696Z,0.68
2023-01-28T10:22:04.400Z,0.57
2023-01-28T10:24:36.750Z,0.61
2023-01-28T10:27:12.643Z,0.65
2023-01-28T10:29:40.496Z,0.71
2023-01-28T10:32:35.899Z,0.79
2023-01-28T10:35:03.527Z,0.71
2023-01-28T10:37:35.914Z,0.69
2023-01-28T10:40:04.138Z,0.66
2023-01-28T10:42:38.325Z,0.59
2023-01-28T10:45:18.085Z,0.65
2023-01-28T10:47:49.913Z,0.64
2023-01-28T10:50:29.681Z,0.65
2023-01-28T10:52:59.505Z,0.72
2023-01-28T10:55:47.982Z,0.73
2023-01-28T10:58:26.156Z,0.67
2023-01-28T11:00:59.417Z,0.70
2023-01-28T11:03:32.166Z,0.73
2023-01-28T11:05:59.485Z,0.79
2023-01-28T11:08:28.679Z,0.79
2023-01-28T11:10:56.751Z,0.83
2023-01-28T11:13:28.514Z,0.79
2023-01-28T11:16:16.612Z,0.83
2023-01-28T11:19:03.081Z,0.83
2023-01-28T11:21:31.919Z,0.82
2023-01-28T11:24:04.784Z,0.83
2023-01-28T11:26:36.326Z,0.90
2023-01-28T11:29:03.758Z,0.85
2023-01-28T11:31:42.051Z,0.88
2023-01-28T11:34:08.648Z,0.89
2023-01-28T11:36:35.578Z,0.89
2023-01-28T11:39:18.061Z,0.92
2023-01-28T11:41:44.591Z,0.87
2023-01-28T11:44:27.760Z,0.79
2023-01-28T11:47:33.222Z,0.78
2023-01-28T11:50:39.127Z,0.81
2023-01-28T11:53:29.257Z,0.82
2023-01-28T11:56:04.501Z,0.79
2023-01-28T11:58:50.155Z,0.78
2023-01-28T12:01:39.513Z,0.80
2023-01-28T12:04:44.544Z,0.72
2023-01-28T12:07:20.972Z,0.72
2023-01-28T12:10:22.615Z,0.62
2023-01-28T12:13:03.863Z,0.59
2023-01-28T12:15:47.878Z,0.52
2023-01-28T12:18:56.149Z,0.51
2023-01-28T12:21:47.644Z,0.56
2023-01-28T12:25:00.449Z,0.62
2023-01-28T12:28:02.051Z,0.58
2023-01-28T12:30:43.923Z,0.71
2023-01-28T12:33:32.315Z,0.86
2023-01-28T12:36:12.281Z,0.94
2023-01-28T12:38:47.169Z,1.05
2023-01-28T12:41:18.450Z,1.04
2023-01-28T12:43:50.989Z,1.02
2023-01-28T12:46:31.975Z,1.13
2023-01-28T12:49:07.992Z,1.28
2023-01-28T12:51:51.372Z,1.35
2023-01-28T12:54:27.998Z,1.35
2023-01-28T12:56:55.693Z,1.32
2023-01-28T12:59:30.360Z,1.27
2023-01-28T13:02:12.322Z,1.13
2023-01-28T13:04:58.125Z,1.18
2023-01-28T13:07:33.418Z,1.13
2023-01-28T13:10:35.332Z,1.12
2023-01-28T13:13:03.376Z,1.06
2023-01-28T13:15:30.620Z,1.10
2023-01-28T13:18:02.765Z,1.19
2023-01-28T13:20:37.377Z,1.26
2023-01-28T13:23:21.683Z,1.19
2023-01-28T13:25:50.003Z,1.20
2023-01-28T13:28:30.802Z,1.27
2023-01-28T13:31:17.473Z,1.25
2023-01-28T13:33:53.336Z,1.19
2023-01-28T13:36:45.246Z,1.08
2023-01-28T13:39:12.061Z,0.99
2023-01-28T13:41:44.583Z,0.93
2023-01-28T13:44:26.069Z,0.75
2023-01-28T13:46:59.188Z,0.80
2023-01-28T13:49:48.829Z,0.75
2023-01-28T13:52:29.398Z,0.76
2023-01-28T13:55:29.401Z,0.83
2023-01-28T13:58:05.958Z,0.89
2023-01-28T14:00:51.198Z,0.94
2023-01-28T14:03:41.970Z,0.97
2023-01-28T14:06:25.696Z,0.98
2023-01-28T14:09:10.886Z,0.99
2023-01-28T14:11:40.562Z,0.96
2023-01-28T14:14:40.725Z,0.88
2023-01-28T14:17:30.409Z,0.76
2023-01-28T14:19:58.424Z,0.72
2023-01-28T14:22:26.252Z,0.61
2023-01-28T14:24:53.164Z,0.63
2023-01-28T14:27:42.200Z,0.69
2023-01-28T14:30:20.229Z,0.71
2023-01-28T14:32:49.512Z,0.57
2023-01-28T14:35:24.740Z,0.65
2023-01-28T14:37:52.172Z,0.67
2023-01-28T14:40:19.364Z,0.76
2023-01-28T14:42:48.817Z,0.77
2023-01-28T14:45:33.908Z,0.74
2023-01-28T14:48:19.862Z,0.65
2023-01-28T14:51:31.536Z,0.48
2023-01-28T14:54:07.200Z,0.41
2023-01-28T14:56:52.568Z,0.43
2023-01-28T14:59:24.997Z,0.42
2023-01-28T15:01:56.814Z,0.43
2023-01-28T15:04:34.198Z,0.44
2023-01-28T15:07:24.536Z,0.45
2023-01-28T15:10:20.598Z,0.45
2023-01-28T15:12:54.628Z,0.45
2023-01-28T15:15:36.797Z,0.45
2023-01-28T15:18:30.870Z,0.32
2023-01-28T15:20:59.200Z,0.19
2023-01-28T15:23:34.586Z,0.17
2023-01-28T15:26:06.377Z,0.17
2023-01-28T15:28:37.039Z,0.16
2023-01-28T15:31:04.072Z,0.07
2023-01-28T15:33:30.683Z,0.05
2023-01-28T15:35:58.662Z,0.01
2023-01-28T15:38:27.749Z,-0.02
2023-01-28T15:41:02.654Z,-0.04
2023-01-28T15:43:35.811Z,-0.04
2023-01-28T15:46:03.286Z,-0.16
2023-01-28T15:48:33.813Z,-0.21
2023-01-28T15:51:05.039Z,-0.21
2023-01-28T15:53:46.169Z,-0.27
2023-01-28T15:56:14.906Z,-0.28
2023-01-28T15:58:42.505Z,-0.31
2023-01-28T16:01:09.061Z,-0.33
2023-01-28T16:03:39.539Z,-0.33
2023-01-28T16:06:16.922Z,-0.35
2023-01-28T16:08:55.457Z,-0.32
2023-01-28T16:11:26.305Z,-0.33
2023-01-28T16:13:53.675Z,-0.33
2023-01-28T16:16:47.030Z,-0.32
2023-01-28T16:19:25.523Z,-0.35
2023-01-28T16:21:52.067Z,-0.37
2023-01-28T16:24:23.358Z,-0.38
2023-01-28T16:27:01.400Z,-0.44
2023-01-28T16:29:30.844Z,-0.46
2023-01-28T16:31:59.774Z,-0.47
2023-01-28T16:34:30.111Z,-0.56
2023-01-28T16:37:00.342Z,-0.54
2023-01-28T16:39:27.306Z,-0.54
2023-01-28T16:41:53.973Z,-0.53
2023-01-28T16:44:20.542Z,-0.49
2023-01-28T16:46:47.169Z,-0.46
2023-01-28T16:49:13.776Z,-0.44
2023-01-28T16:51:43.638Z,-0.42
2023-01-28T16:54:16.049Z,-0.43
2023-01-28T16:56:46.277Z,-0.49
2023-01-28T16:59:15.813Z,-0.55
2023-01-28T17:01:43.873Z,-0.56
2023-01-28T17:04:12.613Z,-0.56
2023-01-28T17:06:43.088Z,-0.61
2023-01-28T17:09:11.739Z,-0.60
2023-01-28T17:11:39.759Z,-0.60
2023-01-28T17:14:06.449Z,-0.57
2023-01-28T17:16:33.075Z,-0.56
2023-01-28T17:18:59.590Z,-0.53
2023-01-28T17:21:26.131Z,-0.53
2023-01-28T17:23:52.707Z,-0.51
2023-01-28T17:26:19.323Z,-0.49
2023-01-28T17:28:51.764Z,-0.51
2023-01-28T17:31:18.817Z,-0.47
2023-01-28T17:33:45.381Z,-0.46
2023-01-28T17:36:11.966Z,-0.49
2023-01-28T17:38:38.916Z,-0.46
2023-01-28T17:41:07.402Z,-0.43
2023-01-28T17:43:37.048Z,-0.43
2023-01-28T17:46:11.966Z,-0.39
2023-01-28T17:48:38.602Z,-0.38
2023-01-28T17:51:05.787Z,-0.36
2023-01-28T17:53:32.458Z,-0.38
2023-01-28T17:55:59.181Z,-0.36
2023-01-28T17:58:25.685Z,-0.35
2023-01-28T18:00:52.525Z,-0.35
2023-01-28T18:03:19.245Z,-0.36
2023-01-28T18:05:45.717Z,-0.36
2023-01-28T18:08:12.239Z,-0.36
2023-01-28T18:10:43.275Z,-0.39
2023-01-28T18:13:09.799Z,-0.45
2023-01-28T18:15:36.269Z,-0.42
2023-01-28T18:18:02.860Z,-0.42
2023-01-28T18:20:29.344Z,-0.41
2023-01-28T18:22:55.862Z,-0.40
2023-01-28T18:25:22.395Z,-0.39
2023-01-28T18:27:49.366Z,-0.39
2023-01-28T18:30:17.813Z,-0.37
2023-01-28T18:32:44.746Z,-0.38
2023-01-28T18:35:12.524Z,-0.39
2023-01-28T18:37:39.847Z,-0.37
2023-01-28T18:40:07.112Z,-0.37
2023-01-28T18:42:33.681Z,-0.36
2023-01-28T18:45:00.271Z,-0.34
2023-01-28T18:47:27.603Z,-0.34
2023-01-28T18:49:54.130Z,-0.33
2023-01-28T18:52:20.627Z,-0.35
2023-01-28T18:54:47.145Z,-0.32
2023-01-28T18:57:13.679Z,-0.35
2023-01-28T18:59:40.154Z,-0.34
2023-01-28T19:02:06.982Z,-0.34
2023-01-28T19:04:33.497Z,-0.35
2023-01-28T19:07:00.123Z,-0.36
2023-01-28T19:09:26.692Z,-0.34
2023-01-28T19:11:53.205Z,-0.35
2023-01-28T19:14:19.794Z,-0.36
2023-01-28T19:16:46.471Z,-0.32
2023-01-28T19:19:13.611Z,-0.33
2023-01-28T19:21:40.215Z,-0.32
2023-01-28T19:24:10.343Z,-0.32
2023-01-28T19:26:37.078Z,-0.32
2023-01-28T19:29:06.583Z,-0.31
2023-01-28T19:31:33.125Z,-0.30
2023-01-28T19:34:00.504Z,-0.31
2023-01-28T19:36:29.943Z,-0.32
2023-01-28T19:39:01.472Z,-0.32
2023-01-28T19:41:28.989Z,-0.33
2023-01-28T19:43:56.543Z,-0.33
2023-01-28T19:46:23.556Z,-0.34
2023-01-28T19:48:50.138Z,-0.36
2023-01-28T19:51:17.577Z,-0.42
2023-01-28T19:53:45.100Z,-0.45
2023-01-28T19:56:15.972Z,-0.45
2023-01-28T19:58:44.123Z,-0.47
2023-01-28T20:01:12.185Z,-0.49
2023-01-28T20:03:39.530Z,-0.48
2023-01-28T20:06:10.497Z,-0.53
2023-01-28T20:08:37.503Z,-0.53
2023-01-28T20:11:08.288Z,-0.53
2023-01-28T20:13:36.806Z,-0.48
2023-01-28T20:16:07.819Z,-0.48
2023-01-28T20:18:35.154Z,-0.47
2023-01-28T20:21:02.075Z,-0.42
2023-01-28T20:23:28.787Z,-0.41
2023-01-28T20:25:58.255Z,-0.40
2023-01-28T20:28:25.612Z,-0.41
2023-01-28T20:30:53.096Z,-0.38
2023-01-28T20:33:20.833Z,-0.36
2023-01-28T20:35:47.679Z,-0.38
2023-01-28T20:38:15.000Z,-0.36
2023-01-28T20:40:42.383Z,-0.37
2023-01-28T20:43:09.305Z,-0.39
2023-01-28T20:45:35.821Z,-0.37
2023-01-28T20:48:02.293Z,-0.39
2023-01-28T20:50:28.839Z,-0.39
2023-01-28T20:52:55.720Z,-0.42
2023-01-28T20:55:22.218Z,-0.45
2023-01-28T20:57:48.740Z,-0.45
2023-01-28T21:00:15.866Z,-0.46
2023-01-28T21:02:44.366Z,-0.46
2023-01-28T21:05:10.887Z,-0.48
2023-01-28T21:07:37.604Z,-0.51
2023-01-28T21:10:04.952Z,-0.54
2023-01-28T21:12:31.569Z,-0.53
2023-01-28T21:14:58.149Z,-0.52
2023-01-28T21:17:25.478Z,-0.51
2023-01-28T21:19:51.997Z,-0.52
2023-01-28T21:22:20.078Z,-0.55
2023-01-28T21:24:49.033Z,-0.55
2023-01-28T21:27:15.755Z,-0.57
2023-01-28T21:29:42.521Z,-0.59
2023-01-28T21:32:09.184Z,-0.64
2023-01-28T21:34:35.850Z,-0.65
2023-01-28T21:37:02.328Z,-0.64
2023-01-28T21:39:28.975Z,-0.59
2023-01-28T21:41:55.520Z,-0.57
2023-01-28T21:44:22.077Z,-0.55
2023-01-28T21:46:48.609Z,-0.54
2023-01-28T21:49:15.258Z,-0.54
2023-01-28T21:51:47.897Z,-0.54
2023-01-28T21:54:19.583Z,-0.54
2023-01-28T21:56:48.943Z,-0.53
2023-01-28T21:59:28.886Z,-0.54
2023-01-28T22:02:09.387Z,-0.53
2023-01-28T22:04:41.551Z,-0.52
2023-01-28T22:07:11.422Z,-0.52
2023-01-28T22:09:38.779Z,-0.48
2023-01-28T22:12:07.987Z,-0.46
2023-01-28T22:14:35.892Z,-0.48
2023-01-28T22:17:03.494Z,-0.45
2023-01-28T22:19:30.233Z,-0.46
2023-01-28T22:21:56.773Z,-0.45
2023-01-28T22:24:26.618Z,-0.44
2023-01-28T22:26:54.531Z,-0.44
2023-01-28T22:29:22.992Z,-0.44
2023-01-28T22:31:51.920Z,-0.43
2023-01-28T22:34:20.091Z,-0.44
2023-01-28T22:36:47.784Z,-0.44
2023-01-28T22:39:16.012Z,-0.43
2023-01-28T22:41:44.227Z,-0.45
2023-01-28T22:44:10.817Z,-0.46
2023-01-28T22:46:37.680Z,-0.45
2023-01-28T22:49:04.273Z,-0.45
2023-01-28T22:51:33.418Z,-0.45
2023-01-28T22:53:59.921Z,-0.46
2023-01-28T22:56:28.723Z,-0.45
2023-01-28T22:58:56.773Z,-0.45
2023-01-28T23:01:23.613Z,-0.46
2023-01-28T23:03:51.198Z,-0.47
2023-01-28T23:06:21.032Z,-0.47
2023-01-28T23:08:48.026Z,-0.49
2023-01-28T23:11:15.584Z,-0.49
2023-01-28T23:14:02.022Z,-0.51
2023-01-28T23:16:48.811Z,-0.50
2023-01-28T23:19:34.836Z,-0.51
2023-01-28T23:22:20.252Z,-0.52
2023-01-28T23:24:46.729Z,-0.52
2023-01-28T23:27:13.287Z,-0.54
2023-01-28T23:29:39.928Z,-0.53
2023-01-28T23:32:11.109Z,-0.52
2023-01-28T23:34:40.394Z,-0.52
2023-01-28T23:37:08.904Z,-0.52
2023-01-28T23:39:35.805Z,-0.51
2023-01-28T23:42:17.275Z,-0.55
2023-01-28T23:44:44.357Z,-0.54
2023-01-28T23:47:11.120Z,-0.53
2023-01-28T23:49:38.381Z,-0.52
2023-01-28T23:52:06.165Z,-0.52
2023-01-28T23:54:33.233Z,-0.54
2023-01-28T23:57:00.396Z,-0.56
2023-01-28T23:59:27.411Z,-0.56
